Time;durP1;ratioP1;P1;durP2;ratioP2;P2;SDS_P1;SDS_P2;PMS_P1;PMS_P2;Temp;Humidity;BMP_temperature;BMP_pressure;BME280_temperature;BME280_humidity;BME280_pressure;Samples;Min_cycle;Max_cycle;Signal;HPM_P1;HPM_P2
2024/01/24 00:00:45;;;;;;;6.95;2.92;;;3.00;99.90;;;;;;5301892;27;20035;-41
2024/01/24 00:03:18;;;;;;;9.35;3.67;;;3.00;99.90;;;;;;5300490;27;20246;-42
2024/01/24 00:05:52;;;;;;;5.93;2.63;;;2.90;99.90;;;;;;5297193;27;20057;-41
2024/01/24 00:08:28;;;;;;;6.43;3.22;;;3.00;99.90;;;;;;5296831;27;20268;-41
2024/01/24 00:11:04;;;;;;;7.82;3.20;;;3.10;99.90;;;;;;5280841;28;20030;-41
2024/01/24 00:13:37;;;;;;;4.85;2.55;;;3.00;91.70;;;;;;5284139;27;20031;-41
2024/01/24 00:16:08;;;;;;;3.47;2.65;;;3.20;99.90;;;;;;5287082;27;20305;-41
2024/01/24 00:18:39;;;;;;;4.80;2.42;;;3.30;99.90;;;;;;5263677;27;20028;-42
2024/01/24 00:21:10;;;;;;;3.58;1.50;;;3.40;99.90;;;;;;5301412;27;20057;-42
2024/01/24 00:23:42;;;;;;;5.40;2.13;;;3.60;76.10;;;;;;5289806;27;20031;-41
2024/01/24 00:26:13;;;;;;;4.35;2.13;;;3.90;1.00;;;;;;5283215;27;20328;-42
2024/01/24 00:28:44;;;;;;;5.78;2.10;;;4.00;1.00;;;;;;5301092;27;20041;-42
2024/01/24 00:31:18;;;;;;;4.53;2.72;;;4.20;1.00;;;;;;5286754;27;20031;-41
2024/01/24 00:33:52;;;;;;;5.80;2.67;;;4.30;99.90;;;;;;5301184;27;20027;-42
2024/01/24 00:36:23;;;;;;;5.22;2.60;;;4.40;1.00;;;;;;5297558;27;20045;-41
2024/01/24 00:38:54;;;;;;;3.90;2.58;;;4.20;1.00;;;;;;5300548;27;20331;-42
2024/01/24 00:41:26;;;;;;;4.50;2.20;;;4.20;99.90;;;;;;5301017;27;20060;-41
2024/01/24 00:44:00;;;;;;;5.70;2.17;;;4.20;1.00;;;;;;5293372;27;20194;-42
2024/01/24 00:46:34;;;;;;;5.78;2.90;;;4.20;1.00;;;;;;5277380;27;20023;-42
2024/01/24 00:49:12;;;;;;;6.97;3.17;;;4.30;1.00;;;;;;5268174;27;20015;-42
2024/01/24 00:51:44;;;;;;;6.93;3.22;;;4.20;1.00;;;;;;5297486;27;20436;-42
2024/01/24 00:54:15;;;;;;;7.18;2.72;;;4.10;1.00;;;;;;5291336;27;20117;-41
2024/01/24 00:56:48;;;;;;;6.10;3.08;;;4.00;1.00;;;;;;5279928;28;20027;-42
2024/01/24 00:59:22;;;;;;;6.25;3.38;;;4.00;1.00;;;;;;5292970;27;20038;-42
2024/01/24 01:01:54;;;;;;;6.53;3.33;;;3.70;1.00;;;;;;5295534;27;20037;-41
2024/01/24 01:04:28;;;;;;;6.03;2.45;;;3.60;99.90;;;;;;5282721;27;20331;-42
2024/01/24 01:07:02;;;;;;;;;;;3.70;99.90;;;;;;5298375;27;20042;-42
2024/01/24 01:09:33;;;;;;;7.10;3.03;;;3.70;1.00;;;;;;5282169;28;19908;-41
2024/01/24 01:12:07;;;;;;;5.85;2.70;;;3.80;99.90;;;;;;5299721;27;20030;-42
2024/01/24 01:14:38;;;;;;;4.30;2.78;;;3.70;99.90;;;;;;5287653;28;20028;-42
2024/01/24 01:17:09;;;;;;;6.20;3.33;;;3.80;99.90;;;;;;5258493;28;20116;-41
2024/01/24 01:19:43;;;;;;;4.70;2.53;;;3.80;99.90;;;;;;5288342;28;20064;-42
2024/01/24 01:22:14;;;;;;;4.50;2.50;;;3.90;99.90;;;;;;5295386;28;20042;-42
2024/01/24 01:24:48;;;;;;;6.68;2.65;;;4.00;99.90;;;;;;5300701;27;20041;-42
2024/01/24 01:27:22;;;;;;;5.75;3.08;;;4.10;99.90;;;;;;5299971;28;20246;-41
2024/01/24 01:29:53;;;;;;;8.30;3.30;;;4.20;76.90;;;;;;5291084;28;20046;-42
2024/01/24 01:32:27;;;;;;;5.10;2.80;;;4.20;1.00;;;;;;5279375;28;20340;-41
2024/01/24 01:34:59;;;;;;;6.07;3.50;;;4.10;1.00;;;;;;5292169;28;20046;-41
2024/01/24 01:37:32;;;;;;;5.00;2.90;;;4.20;1.00;;;;;;5299201;28;20184;-42
2024/01/24 01:40:07;;;;;;;5.82;2.80;;;4.20;1.00;;;;;;5299351;28;20205;-41
2024/01/24 01:42:47;;;;;;;5.15;2.83;;;4.30;1.00;;;;;;5281583;28;20057;-42
2024/01/24 01:45:22;;;;;;;5.78;2.63;;;4.50;1.00;;;;;;5295981;27;20284;-42
2024/01/24 01:47:57;;;;;;;9.77;2.67;;;4.20;99.90;;;;;;5254074;28;20039;-42
2024/01/24 01:50:33;;;;;;;;;;;4.30;1.00;;;;;;5293025;28;20338;-42
2024/01/24 01:53:05;;;;;;;5.03;2.70;;;4.20;1.00;;;;;;5281493;28;19907;-41
2024/01/24 01:55:37;;;;;;;2.88;1.85;;;4.20;1.00;;;;;;5283665;28;20243;-42
2024/01/24 01:58:08;;;;;;;7.13;2.35;;;4.30;1.00;;;;;;5297188;28;20035;-41
2024/01/24 02:00:41;;;;;;;4.03;1.90;;;4.30;1.00;;;;;;5278597;28;20043;-41
2024/01/24 02:03:12;;;;;;;4.90;1.90;;;4.60;99.90;;;;;;5298127;28;20562;-41
2024/01/24 02:05:44;;;;;;;4.97;2.17;;;4.50;1.00;;;;;;5299261;28;20332;-41
2024/01/24 02:08:16;;;;;;;3.80;2.10;;;4.60;99.90;;;;;;5281677;28;20043;-41
2024/01/24 02:10:50;;;;;;;3.00;1.50;;;4.60;44.80;;;;;;5296903;28;20023;-41
2024/01/24 02:13:28;;;;;;;5.80;1.98;;;4.90;1.00;;;;;;5295831;28;20221;-40
2024/01/24 02:16:00;;;;;;;4.95;2.08;;;5.20;1.00;;;;;;5264882;28;20238;-41
2024/01/24 02:18:31;;;;;;;4.35;2.10;;;5.30;99.90;;;;;;5300959;27;20015;-41
2024/01/24 02:21:03;;;;;;;3.63;1.85;;;5.20;99.90;;;;;;5299581;28;20038;-41
2024/01/24 02:23:35;;;;;;;5.55;1.80;;;5.40;99.90;;;;;;5289339;27;20033;-41
2024/01/24 02:26:07;;;;;;;5.85;2.38;;;5.60;99.90;;;;;;5301409;27;20395;-41
2024/01/24 02:28:39;;;;;;;4.22;2.50;;;5.50;65.20;;;;;;5246714;28;20047;-41
2024/01/24 02:31:16;;;;;;;3.67;2.28;;;5.50;99.90;;;;;;5300421;27;20034;-41
2024/01/24 02:33:56;;;;;;;3.10;1.83;;;5.40;99.90;;;;;;5301645;27;20372;-41
2024/01/24 02:36:27;;;;;;;2.35;1.77;;;5.30;99.90;;;;;;5264681;28;20346;-41
2024/01/24 02:38:58;;;;;;;6.30;2.40;;;5.30;99.90;;;;;;5294206;27;20065;-41
2024/01/24 02:41:33;;;;;;;5.65;1.83;;;5.30;1.00;;;;;;5301384;27;20041;-41
2024/01/24 02:44:04;;;;;;;7.50;1.83;;;5.00;99.90;;;;;;5270346;28;20288;-41
2024/01/24 02:46:36;;;;;;;4.85;2.00;;;4.90;1.00;;;;;;5288922;27;20270;-41
2024/01/24 02:49:10;;;;;;;3.45;1.95;;;5.00;1.00;;;;;;5282626;27;20050;-41
2024/01/24 02:51:47;;;;;;;5.95;2.63;;;4.80;1.00;;;;;;5297523;27;20039;-41
2024/01/24 02:54:18;;;;;;;3.55;2.20;;;4.70;99.90;;;;;;5299339;27;20161;-41
2024/01/24 02:56:55;;;;;;;8.52;2.65;;;4.80;1.00;;;;;;5307518;27;20039;-42
2024/01/24 02:59:26;;;;;;;4.20;2.10;;;4.80;1.00;;;;;;5280435;27;20035;-41
2024/01/24 03:02:04;;;;;;;4.20;2.30;;;4.90;1.00;;;;;;5300631;27;20284;-41
2024/01/24 03:04:37;;;;;;;7.25;3.05;;;4.60;1.00;;;;;;5300779;27;20039;-41
2024/01/24 03:07:09;;;;;;;7.03;2.10;;;4.70;99.90;;;;;;5301472;27;20194;-41
2024/01/24 03:09:43;;;;;;;7.40;2.95;;;4.50;99.90;;;;;;5280052;27;20199;-41
2024/01/24 03:12:14;;;;;;;4.32;2.25;;;4.70;99.90;;;;;;5282197;28;20027;-41
2024/01/24 03:14:45;;;;;;;5.40;2.78;;;4.50;99.90;;;;;;5294238;27;20034;-41
2024/01/24 03:17:17;;;;;;;2.45;1.75;;;4.40;99.90;;;;;;5275718;28;20307;-42
2024/01/24 03:19:48;;;;;;;3.55;1.95;;;4.30;99.90;;;;;;5291420;27;20401;-42
2024/01/24 03:22:24;;;;;;;5.47;2.35;;;4.30;1.00;;;;;;5295504;27;20339;-42
2024/01/24 03:24:58;;;;;;;7.45;3.28;;;4.30;1.00;;;;;;5298622;27;20019;-51
2024/01/24 03:27:32;;;;;;;5.97;2.05;;;4.50;1.00;;;;;;5291739;27;20038;-51
2024/01/24 03:30:09;;;;;;;3.50;1.80;;;4.60;1.00;;;;;;5283410;27;20203;-54
2024/01/24 03:32:43;;;;;;;5.35;2.22;;;4.50;1.00;;;;;;5283700;27;20036;-57
2024/01/24 03:35:16;;;;;;;2.38;1.73;;;4.50;1.00;;;;;;5297256;27;20226;-62
2024/01/24 03:37:53;;;;;;;7.03;2.63;;;4.40;1.00;;;;;;5298676;27;20164;-65
2024/01/24 03:40:24;;;;;;;5.45;1.92;;;4.50;1.00;;;;;;5294967;27;20026;-62
2024/01/24 03:42:58;;;;;;;3.78;1.73;;;4.70;1.00;;;;;;5298929;27;20049;-48
2024/01/24 03:45:31;;;;;;;3.65;1.92;;;4.40;1.00;;;;;;5289460;27;20041;-57
2024/01/24 03:48:08;;;;;;;2.90;1.90;;;4.40;1.00;;;;;;5263521;28;20339;-56
2024/01/24 03:50:42;;;;;;;4.10;2.10;;;4.30;1.00;;;;;;5297337;27;20243;-47
2024/01/24 03:53:28;;;;;;;5.65;1.70;;;4.30;1.00;;;;;;5292536;27;20280;-47
2024/01/24 03:55:59;;;;;;;5.85;2.50;;;4.20;1.00;;;;;;5289851;27;20205;-47
2024/01/24 03:58:33;;;;;;;4.78;1.98;;;4.30;1.00;;;;;;5293416;27;20027;-44
2024/01/24 04:01:07;;;;;;;6.22;2.17;;;4.30;1.00;;;;;;5293062;27;20033;-44
2024/01/24 04:03:41;;;;;;;3.22;2.05;;;4.50;1.00;;;;;;5295300;27;20035;-44
2024/01/24 04:06:12;;;;;;;4.43;2.30;;;4.40;1.00;;;;;;5279386;28;20035;-44
2024/01/24 04:08:44;;;;;;;17.45;6.90;;;4.60;1.00;;;;;;5263513;28;20331;-44
2024/01/24 04:11:15;;;;;;;10.70;3.10;;;4.50;1.00;;;;;;5293496;27;20264;-44
2024/01/24 04:14:01;;;;;;;11.00;4.05;;;4.80;1.00;;;;;;5291788;27;20311;-42
2024/01/24 04:16:32;;;;;;;8.20;3.63;;;5.20;1.00;;;;;;5276127;28;20019;-43
2024/01/24 04:19:09;;;;;;;7.25;3.95;;;5.40;1.00;;;;;;5268172;27;20200;-42
2024/01/24 04:21:45;;;;;;;10.48;4.20;;;5.70;1.00;;;;;;5301679;27;20031;-42
2024/01/24 04:24:19;;;;;;;12.20;4.40;;;5.50;1.00;;;;;;5302909;27;20022;-43
2024/01/24 04:26:50;;;;;;;9.13;3.67;;;5.20;1.00;;;;;;5303258;27;20274;-43
2024/01/24 04:29:24;;;;;;;5.75;2.65;;;5.30;1.00;;;;;;5301024;27;20045;-43
2024/01/24 04:31:58;;;;;;;3.97;2.63;;;5.40;1.00;;;;;;5290356;27;20253;-43
2024/01/24 04:34:29;;;;;;;6.10;2.58;;;5.20;1.00;;;;;;5284561;27;20045;-43
2024/01/24 04:37:00;;;;;;;6.40;2.78;;;5.30;1.00;;;;;;5262554;28;20300;-43
2024/01/24 04:39:34;;;;;;;2.85;2.20;;;5.50;1.00;;;;;;5299383;27;20046;-42
2024/01/24 04:42:08;;;;;;;3.72;2.72;;;5.00;1.00;;;;;;5301158;27;20266;-42
2024/01/24 04:44:41;;;;;;;4.70;3.05;;;4.90;1.00;;;;;;5302519;27;20031;-45
2024/01/24 04:47:15;;;;;;;6.05;2.67;;;4.60;1.00;;;;;;5278442;27;20036;-47
2024/01/24 04:49:49;;;;;;;3.85;2.47;;;4.60;1.00;;;;;;5270804;28;20031;-47
2024/01/24 04:52:21;;;;;;;6.65;2.95;;;4.70;1.00;;;;;;5274929;27;20516;-48
2024/01/24 04:54:54;;;;;;;4.90;2.95;;;5.10;1.00;;;;;;5298935;27;20349;-48
2024/01/24 04:57:26;;;;;;;6.88;2.85;;;5.10;1.00;;;;;;5300339;27;20047;-46
2024/01/24 04:59:57;;;;;;;6.15;3.10;;;5.00;1.00;;;;;;5282868;27;20039;-47
2024/01/24 05:02:29;;;;;;;8.13;3.05;;;4.80;1.00;;;;;;5298275;27;20034;-47
2024/01/24 05:05:06;;;;;;;7.88;3.30;;;4.90;1.00;;;;;;5282994;28;20045;-47
2024/01/24 05:07:48;;;;;;;6.18;3.47;;;5.10;1.00;;;;;;5301534;27;20027;-47
2024/01/24 05:10:25;;;;;;;6.30;3.78;;;5.00;1.00;;;;;;5282285;28;20035;-47
2024/01/24 05:12:56;;;;;;;6.60;3.15;;;4.90;1.00;;;;;;5282663;28;20034;-47
2024/01/24 05:15:27;;;;;;;6.15;2.83;;;4.70;1.00;;;;;;5280603;28;20267;-47
2024/01/24 05:18:00;;;;;;;7.15;2.80;;;4.70;1.00;;;;;;5281275;28;20032;-47
2024/01/24 05:20:32;;;;;;;8.03;3.33;;;4.70;1.00;;;;;;5262547;28;20266;-46
2024/01/24 05:23:10;;;;;;;8.73;3.13;;;4.70;1.00;;;;;;5288122;27;20278;-46
2024/01/24 05:25:42;;;;;;;5.05;2.50;;;4.60;1.00;;;;;;5285494;28;20039;-46
2024/01/24 05:28:14;;;;;;;9.05;2.95;;;4.60;1.00;;;;;;5281869;28;20125;-46
2024/01/24 05:30:45;;;;;;;7.60;2.70;;;4.50;1.00;;;;;;5297912;28;20029;-47
2024/01/24 05:33:18;;;;;;;4.03;3.28;;;4.60;1.00;;;;;;5290736;28;20053;-47
2024/01/24 05:35:49;;;;;;;10.70;3.40;;;4.60;1.00;;;;;;5263109;28;20305;-47
2024/01/24 05:38:23;;;;;;;11.15;3.80;;;4.70;1.00;;;;;;5290513;28;20053;-46
2024/01/24 05:40:55;;;;;;;4.55;2.53;;;4.70;1.00;;;;;;5287723;27;20140;-47
2024/01/24 05:43:30;;;;;;;3.33;2.28;;;4.70;1.00;;;;;;5274700;28;20256;-46
2024/01/24 05:46:01;;;;;;;7.45;2.63;;;4.60;1.00;;;;;;5270646;28;20041;-48
2024/01/24 05:48:33;;;;;;;9.50;3.05;;;4.70;1.00;;;;;;5290474;28;20443;-46
2024/01/24 05:51:07;;;;;;;7.18;3.13;;;4.80;1.00;;;;;;5292254;28;20125;-46
2024/01/24 05:53:41;;;;;;;;;;;4.70;1.00;;;;;;5289070;28;20304;-46
2024/01/24 05:56:12;;;;;;;4.25;2.85;;;4.70;1.00;;;;;;5288402;28;19907;-46
2024/01/24 05:58:45;;;;;;;7.22;3.25;;;4.80;1.00;;;;;;5283071;28;20108;-46
2024/01/24 06:01:19;;;;;;;8.15;3.92;;;4.80;1.00;;;;;;5287373;27;20053;-47
2024/01/24 06:03:50;;;;;;;6.05;3.03;;;4.80;1.00;;;;;;5292449;27;20323;-46
2024/01/24 06:06:21;;;;;;;7.45;4.03;;;5.10;1.00;;;;;;5287657;27;20039;-46
2024/01/24 06:08:52;;;;;;;9.07;3.13;;;5.10;1.00;;;;;;5267791;28;20050;-46
2024/01/24 06:11:23;;;;;;;10.18;3.45;;;5.30;1.00;;;;;;5296573;27;20406;-46
2024/01/24 06:13:55;;;;;;;7.45;3.20;;;5.30;1.00;;;;;;5300288;27;20036;-46
2024/01/24 06:16:26;;;;;;;5.53;2.92;;;5.10;1.00;;;;;;5293042;27;20129;-47
2024/01/24 06:18:59;;;;;;;7.00;3.30;;;5.10;1.00;;;;;;5270455;28;20035;-47
2024/01/24 06:21:30;;;;;;;4.97;3.00;;;5.10;1.00;;;;;;5296885;27;20037;-47
2024/01/24 06:24:08;;;;;;;7.10;4.35;;;5.10;1.00;;;;;;5300627;27;20890;-47
2024/01/24 06:26:39;;;;;;;5.72;3.20;;;5.10;1.00;;;;;;5286411;27;20241;-46
2024/01/24 06:29:10;;;;;;;4.40;3.42;;;5.20;1.00;;;;;;5300933;27;20327;-48
2024/01/24 06:31:45;;;;;;;9.88;3.65;;;5.20;1.00;;;;;;5297987;27;20309;-47
2024/01/24 06:34:21;;;;;;;10.68;5.75;;;5.20;1.00;;;;;;5294470;27;20035;-46
2024/01/24 06:36:55;;;;;;;17.20;5.78;;;5.10;1.00;;;;;;5297792;27;20377;-46
2024/01/24 06:39:27;;;;;;;16.77;7.07;;;5.10;1.00;;;;;;5297201;27;20042;-46
2024/01/24 06:41:58;;;;;;;15.13;5.97;;;5.00;1.00;;;;;;5298169;27;20222;-46
2024/01/24 06:44:31;;;;;;;14.02;6.22;;;5.10;1.00;;;;;;5296736;27;20027;-46
2024/01/24 06:47:03;;;;;;;15.80;6.45;;;5.10;1.00;;;;;;5269890;27;20031;-46
2024/01/24 06:49:34;;;;;;;12.77;6.97;;;5.00;1.00;;;;;;5273096;27;20038;-48
2024/01/24 06:52:08;;;;;;;15.13;7.03;;;4.70;1.00;;;;;;5294475;27;20096;-47
2024/01/24 06:54:39;;;;;;;15.18;8.75;;;4.90;1.00;;;;;;5280267;27;20382;-46
2024/01/24 06:57:10;;;;;;;14.05;7.18;;;4.90;1.00;;;;;;5269315;27;20232;-46
2024/01/24 06:59:47;;;;;;;17.38;7.10;;;4.80;1.00;;;;;;5279278;27;20229;-46
2024/01/24 07:02:19;;;;;;;12.68;7.13;;;4.80;1.00;;;;;;5235285;28;20277;-46
2024/01/24 07:04:50;;;;;;;19.08;7.15;;;4.70;1.00;;;;;;5259133;28;20028;-46
2024/01/24 07:07:25;;;;;;;11.07;7.28;;;4.70;1.00;;;;;;5234558;28;20044;-46
2024/01/24 07:09:58;;;;;;;18.27;9.32;;;4.80;1.00;;;;;;5251621;28;20032;-46
2024/01/24 07:12:30;;;;;;;58.07;24.77;;;4.90;1.00;;;;;;5257279;28;20194;-47
2024/01/24 07:15:01;;;;;;;41.20;21.90;;;4.70;1.00;;;;;;5253703;28;20280;-47
2024/01/24 07:17:34;;;;;;;31.45;15.85;;;4.70;1.00;;;;;;5249213;28;20252;-47
2024/01/24 07:20:09;;;;;;;29.27;14.15;;;4.80;1.00;;;;;;5250954;28;20046;-46
2024/01/24 07:22:40;;;;;;;18.25;7.72;;;4.80;1.00;;;;;;5256802;28;20040;-46
2024/01/24 07:25:11;;;;;;;15.23;8.40;;;4.70;1.00;;;;;;5262693;28;20066;-46
2024/01/24 07:27:45;;;;;;;18.33;7.55;;;4.70;1.00;;;;;;5259908;28;20062;-46
2024/01/24 07:30:19;;;;;;;17.70;8.10;;;4.70;1.00;;;;;;5266369;28;20034;-46
2024/01/24 07:32:51;;;;;;;11.43;5.95;;;4.80;1.00;;;;;;5269267;28;20032;-46
2024/01/24 07:35:24;;;;;;;11.30;5.10;;;4.80;1.00;;;;;;5270441;28;20038;-47
2024/01/24 07:37:56;;;;;;;12.73;5.45;;;4.80;1.00;;;;;;5266389;28;20042;-47
2024/01/24 07:40:27;;;;;;;10.88;6.82;;;4.80;1.00;;;;;;5256902;28;20388;-47
2024/01/24 07:42:59;;;;;;;10.23;5.05;;;4.80;1.00;;;;;;5251968;28;20036;-47
2024/01/24 07:45:36;;;;;;;11.00;4.55;;;4.90;1.00;;;;;;5261913;28;20203;-46
2024/01/24 07:48:14;;;;;;;8.65;5.20;;;5.00;1.00;;;;;;5248718;28;20025;-46
2024/01/24 07:50:49;;;;;;;8.23;4.63;;;5.10;1.00;;;;;;5245876;28;20407;-46
2024/01/24 07:53:20;;;;;;;7.43;3.90;;;5.20;1.00;;;;;;5261747;28;20501;-46
2024/01/24 07:55:51;;;;;;;10.90;6.40;;;5.20;1.00;;;;;;5257149;28;20027;-46
2024/01/24 07:58:23;;;;;;;11.05;6.57;;;5.20;1.00;;;;;;5243445;28;20491;-46
2024/01/24 08:00:55;;;;;;;8.25;5.40;;;5.20;1.00;;;;;;5271757;27;20500;-46
2024/01/24 08:03:26;;;;;;;12.95;6.85;;;5.20;1.00;;;;;;5290621;27;20561;-45
2024/01/24 08:05:57;;;;;;;11.73;7.03;;;5.30;1.00;;;;;;5280532;27;20031;-45
2024/01/24 08:08:28;;;;;;;9.10;5.38;;;5.30;1.00;;;;;;5288590;27;20247;-45
2024/01/24 08:11:00;;;;;;;9.65;5.88;;;5.40;1.00;;;;;;5297368;27;20023;-44
2024/01/24 08:13:32;;;;;;;6.65;5.15;;;5.40;1.00;;;;;;5292115;27;20088;-45
2024/01/24 08:16:04;;;;;;;8.13;4.95;;;5.50;1.00;;;;;;5292218;27;20047;-44
2024/01/24 08:18:40;;;;;;;7.35;4.05;;;5.50;1.00;;;;;;5301243;27;20292;-44
2024/01/24 08:21:13;;;;;;;5.07;3.22;;;5.50;1.00;;;;;;5295203;27;20547;-44
2024/01/24 08:23:44;;;;;;;5.47;2.88;;;5.50;1.00;;;;;;5275330;27;20043;-43
2024/01/24 08:26:18;;;;;;;9.15;3.10;;;5.60;1.00;;;;;;5290948;27;20034;-43
2024/01/24 08:28:52;;;;;;;5.83;2.90;;;5.70;1.00;;;;;;5298010;27;20027;-45
2024/01/24 08:31:23;;;;;;;5.40;2.95;;;5.80;1.00;;;;;;5292589;27;20223;-44
2024/01/24 08:33:54;;;;;;;2.75;2.25;;;6.10;1.00;;;;;;5267249;28;20040;-44
2024/01/24 08:36:26;;;;;;;5.05;2.00;;;6.40;1.00;;;;;;5291548;27;20035;-44
2024/01/24 08:39:00;;;;;;;4.97;3.05;;;6.40;99.90;;;;;;5288835;27;20030;-45
2024/01/24 08:41:31;;;;;;;7.72;3.08;;;6.60;99.90;;;;;;5281609;27;20502;-45
2024/01/24 08:44:04;;;;;;;3.92;2.05;;;6.50;1.00;;;;;;5274301;27;20347;-46
2024/01/24 08:46:36;;;;;;;3.80;2.35;;;6.50;1.00;;;;;;5274965;27;20039;-46
2024/01/24 08:49:07;;;;;;;2.95;2.65;;;6.60;99.90;;;;;;5282746;27;20035;-45
2024/01/24 08:51:39;;;;;;;3.67;2.53;;;6.90;99.90;;;;;;5295919;27;20023;-45
2024/01/24 08:54:13;;;;;;;2.85;2.25;;;7.30;1.00;;;;;;5289189;27;20032;-44
2024/01/24 08:56:48;;;;;;;;;;;8.10;1.00;;;;;;5261824;27;20220;-45
2024/01/24 08:59:22;;;;;;;1.88;1.48;;;8.90;99.90;;;;;;5279862;28;19918;-45
2024/01/24 09:01:55;;;;;;;1.63;1.40;;;9.60;1.00;;;;;;5285110;27;20027;-44
2024/01/24 09:04:29;;;;;;;1.73;1.63;;;10.60;1.00;;;;;;5293004;27;20327;-44
2024/01/24 09:07:03;;;;;;;1.63;1.40;;;11.10;99.90;;;;;;5300262;27;20031;-42
2024/01/24 09:09:37;;;;;;;2.88;1.60;;;11.40;20.50;;;;;;5293638;27;20254;-44
2024/01/24 09:12:08;;;;;;;1.67;1.50;;;11.60;1.00;;;;;;5277195;28;20027;-44
2024/01/24 09:14:44;;;;;;;0.85;0.80;;;11.60;1.00;;;;;;5291010;28;20213;-43
2024/01/24 09:17:17;;;;;;;1.95;1.50;;;11.70;1.00;;;;;;5283906;28;20343;-44
2024/01/24 09:19:48;;;;;;;1.98;1.20;;;12.10;1.00;;;;;;5299863;28;20029;-48
2024/01/24 09:22:20;;;;;;;1.88;1.40;;;12.50;99.90;;;;;;5286072;28;20046;-48
2024/01/24 09:24:51;;;;;;;1.40;1.30;;;12.50;99.90;;;;;;5261468;28;20143;-49
2024/01/24 09:27:25;;;;;;;1.17;1.08;;;12.60;99.90;;;;;;5271845;28;20031;-49
2024/01/24 09:29:59;;;;;;;1.77;1.25;;;12.80;99.90;;;;;;5278511;28;20039;-50
2024/01/24 09:32:33;;;;;;;1.17;1.10;;;13.00;99.90;;;;;;5275818;28;20204;-50
2024/01/24 09:35:06;;;;;;;1.40;1.30;;;13.20;1.00;;;;;;5292718;27;20034;-49
2024/01/24 09:37:41;;;;;;;1.35;1.00;;;13.40;1.00;;;;;;5292425;27;20272;-53
2024/01/24 09:40:15;;;;;;;2.33;1.35;;;13.50;1.00;;;;;;5296632;27;20041;-51
2024/01/24 09:42:46;;;;;;;1.52;1.00;;;13.60;1.00;;;;;;5291763;27;20027;-49
2024/01/24 09:45:22;;;;;;;1.13;1.13;;;13.70;1.00;;;;;;5281215;27;20035;-49
2024/01/24 09:48:02;;;;;;;1.42;1.33;;;13.80;1.00;;;;;;5265937;27;20031;-48
2024/01/24 09:50:39;;;;;;;1.55;1.45;;;13.70;1.00;;;;;;5291386;27;20335;-48
2024/01/24 09:53:19;;;;;;;2.70;1.20;;;13.60;1.00;;;;;;5283818;27;20030;-50
2024/01/24 09:55:51;;;;;;;1.50;1.02;;;13.40;1.00;;;;;;5283570;27;20039;-51
2024/01/24 09:58:23;;;;;;;1.60;0.98;;;13.40;1.00;;;;;;5275683;27;20125;-51
2024/01/24 10:00:57;;;;;;;1.45;1.35;;;13.40;1.00;;;;;;5288927;27;20038;-52
2024/01/24 10:03:31;;;;;;;0.88;0.80;;;13.50;1.00;;;;;;5281453;27;20463;-52
2024/01/24 10:06:04;;;;;;;1.10;1.00;;;13.60;1.00;;;;;;5289801;27;20032;-56
2024/01/24 10:08:35;;;;;;;1.33;1.23;;;13.80;1.00;;;;;;5292027;27;20217;-56
2024/01/24 10:11:09;;;;;;;3.78;1.20;;;13.90;1.00;;;;;;5293421;27;20020;-56
2024/01/24 10:13:40;;;;;;;1.10;1.00;;;14.00;1.00;;;;;;5279484;27;20118;-57
2024/01/24 10:16:14;;;;;;;1.48;1.00;;;14.10;1.00;;;;;;5289289;27;20039;-58
2024/01/24 10:18:47;;;;;;;1.30;1.10;;;14.20;1.00;;;;;;5302085;27;20041;-61
2024/01/24 10:21:18;;;;;;;2.75;0.93;;;14.20;1.00;;;;;;5283105;27;20035;-68
2024/01/24 10:23:52;;;;;;;0.80;0.80;;;14.30;1.00;;;;;;5288521;27;20037;-58
2024/01/24 10:26:25;;;;;;;1.50;1.40;;;14.30;1.00;;;;;;5263813;27;20039;-53
2024/01/24 10:28:56;;;;;;;1.10;1.00;;;14.40;1.00;;;;;;5298230;27;20023;-48
2024/01/24 10:31:30;;;;;;;1.58;0.98;;;14.50;1.00;;;;;;5299121;27;20311;-46
2024/01/24 10:34:03;;;;;;;1.85;1.20;;;14.60;1.00;;;;;;5278441;27;20027;-44
2024/01/24 10:36:38;;;;;;;0.90;0.90;;;14.70;1.00;;;;;;5277977;27;20030;-42
2024/01/24 10:39:16;;;;;;;0.80;0.80;;;14.70;99.90;;;;;;5294201;27;20027;-42
2024/01/24 10:41:53;;;;;;;0.93;0.90;;;14.80;99.90;;;;;;5286062;27;20038;-42
2024/01/24 10:44:31;;;;;;;0.85;0.85;;;14.70;99.90;;;;;;5295027;27;20274;-42
2024/01/24 10:47:02;;;;;;;0.98;0.98;;;14.70;99.90;;;;;;5284795;27;20328;-42
2024/01/24 10:49:34;;;;;;;1.38;1.20;;;14.70;99.90;;;;;;5295513;27;20370;-41
2024/01/24 10:52:09;;;;;;;2.03;1.30;;;14.70;99.90;;;;;;5268504;27;20027;-42
2024/01/24 10:54:41;;;;;;;2.25;1.00;;;14.70;99.90;;;;;;5275650;27;20240;-40
2024/01/24 10:57:18;;;;;;;1.02;0.90;;;14.80;99.90;;;;;;5276793;27;20430;-41
2024/01/24 10:59:50;;;;;;;1.13;1.10;;;14.90;99.90;;;;;;5289358;27;20041;-41
2024/01/24 11:02:22;;;;;;;2.08;1.20;;;14.90;99.90;;;;;;5290730;27;20038;-41
2024/01/24 11:04:55;;;;;;;1.23;1.15;;;15.10;99.90;;;;;;5282106;27;20203;-42
2024/01/24 11:07:34;;;;;;;1.27;1.17;;;15.20;99.90;;;;;;5273598;27;20699;-41
2024/01/24 11:10:11;;;;;;;2.67;1.20;;;15.40;99.90;;;;;;5251687;28;20031;-41
2024/01/24 11:12:47;;;;;;;1.30;1.20;;;15.40;99.90;;;;;;5291906;27;20410;-42
2024/01/24 11:15:22;;;;;;;1.38;1.27;;;15.50;99.90;;;;;;5259874;28;20028;-41
2024/01/24 11:18:22;;;;;;;1.00;1.00;;;15.40;99.90;;;;;;5297365;27;20027;-41
2024/01/24 11:20:59;;;;;;;1.10;1.10;;;15.30;99.90;;;;;;5277165;28;20028;-42
2024/01/24 11:23:45;;;;;;;1.15;1.05;;;15.30;99.90;;;;;;5299346;27;20096;-41
2024/01/24 11:26:16;;;;;;;1.95;1.08;;;15.30;99.90;;;;;;5296876;27;20030;-42
2024/01/24 11:28:48;;;;;;;1.13;1.02;;;15.20;99.90;;;;;;5289490;27;20035;-42
2024/01/24 11:31:37;;;;;;;2.00;1.20;;;15.10;99.90;;;;;;5285219;27;20031;-41
2024/01/24 11:34:13;;;;;;;1.30;1.20;;;15.10;99.90;;;;;;5281667;27;20016;-41
2024/01/24 11:36:55;;;;;;;1.00;1.00;;;15.00;99.90;;;;;;5281112;28;20140;-41
2024/01/24 11:39:39;;;;;;;1.20;1.10;;;14.90;99.90;;;;;;5261955;28;20039;-40
2024/01/24 11:42:33;;;;;;;1.42;1.30;;;14.80;99.90;;;;;;5286706;27;20034;-40
2024/01/24 11:45:15;;;;;;;1.10;1.10;;;14.80;99.90;;;;;;5281409;27;20433;-40
2024/01/24 11:47:47;;;;;;;0.98;0.90;;;14.70;99.90;;;;;;5298940;27;20035;-40
2024/01/24 11:50:19;;;;;;;1.25;1.15;;;14.60;99.90;;;;;;5270198;27;20270;-41
2024/01/24 11:52:58;;;;;;;1.00;1.00;;;14.60;99.90;;;;;;5295137;27;20431;-40
2024/01/24 11:55:29;;;;;;;1.65;1.30;;;14.50;99.90;;;;;;5297145;27;20041;-40
2024/01/24 11:58:10;;;;;;;1.00;1.00;;;14.50;99.90;;;;;;5293612;27;20330;-41
2024/01/24 12:00:44;;;;;;;1.30;1.20;;;14.50;99.90;;;;;;5267786;27;20509;-40
2024/01/24 12:03:17;;;;;;;1.42;1.30;;;14.40;99.90;;;;;;5301268;27;20440;-40
2024/01/24 12:05:52;;;;;;;1.40;1.30;;;14.40;99.90;;;;;;5281910;27;20319;-42
2024/01/24 12:08:28;;;;;;;1.05;0.98;;;14.40;99.90;;;;;;5281053;28;20027;-40
2024/01/24 12:11:00;;;;;;;1.20;1.10;;;14.50;99.90;;;;;;5270152;27;20031;-40
2024/01/24 12:13:34;;;;;;;1.23;1.23;;;14.60;99.90;;;;;;5298495;27;20034;-41
2024/01/24 12:16:08;;;;;;;1.98;1.20;;;14.70;99.90;;;;;;5297449;27;20037;-40
2024/01/24 12:18:44;;;;;;;1.05;1.05;;;14.80;99.90;;;;;;5291176;27;20035;-40
2024/01/24 12:21:18;;;;;;;1.05;1.02;;;14.80;99.90;;;;;;5293897;27;20035;-40
2024/01/24 12:23:51;;;;;;;1.20;1.10;;;14.80;99.90;;;;;;5284236;27;20032;-42
2024/01/24 12:26:23;;;;;;;1.10;1.10;;;14.90;99.90;;;;;;5289077;27;20036;-40
2024/01/24 12:29:03;;;;;;;2.33;1.13;;;14.90;99.90;;;;;;5289562;27;20217;-40
2024/01/24 12:31:41;;;;;;;1.40;1.30;;;15.10;99.90;;;;;;5284230;27;20239;-41
2024/01/24 12:34:12;;;;;;;1.25;1.10;;;15.20;99.90;;;;;;5284469;27;20338;-40
2024/01/24 12:36:45;;;;;;;1.00;1.00;;;15.50;99.90;;;;;;5266461;28;20027;-41
2024/01/24 12:39:16;;;;;;;1.23;1.10;;;15.70;99.90;;;;;;5294792;27;20242;-41
2024/01/24 12:41:53;;;;;;;1.92;1.30;;;15.80;84.00;;;;;;5268247;27;20037;-41
2024/01/24 12:44:25;;;;;;;1.40;1.30;;;15.70;90.20;;;;;;5260530;27;20026;-40
2024/01/24 12:46:59;;;;;;;1.80;1.23;;;15.40;76.80;;;;;;5273351;27;20272;-41
2024/01/24 12:49:30;;;;;;;1.50;1.40;;;15.30;73.00;;;;;;5285384;27;20154;-40
2024/01/24 12:52:04;;;;;;;1.30;1.15;;;15.20;47.70;;;;;;5286795;27;20023;-40
2024/01/24 12:54:42;;;;;;;1.73;1.50;;;15.30;53.10;;;;;;5298530;27;20037;-41
2024/01/24 12:57:19;;;;;;;1.10;1.00;;;15.50;51.40;;;;;;5278213;27;20041;-40
2024/01/24 12:59:51;;;;;;;1.30;1.20;;;15.40;91.20;;;;;;5287775;27;20035;-41
2024/01/24 13:02:23;;;;;;;1.50;1.40;;;15.40;91.80;;;;;;5284307;27;20038;-41
2024/01/24 13:04:54;;;;;;;1.30;1.20;;;15.60;97.70;;;;;;5287089;27;20037;-40
2024/01/24 13:07:29;;;;;;;1.15;1.10;;;16.00;86.10;;;;;;5286153;27;20032;-41
2024/01/24 13:10:00;;;;;;;;;;;16.30;93.30;;;;;;5269225;28;20062;-40
2024/01/24 13:12:31;;;;;;;0.95;0.93;;;16.40;50.30;;;;;;5281096;27;19918;-41
2024/01/24 13:15:07;;;;;;;1.30;1.20;;;16.20;14.10;;;;;;5267475;28;20345;-41
2024/01/24 13:17:39;;;;;;;1.55;1.45;;;16.10;1.00;;;;;;5284789;28;20065;-40
2024/01/24 13:20:10;;;;;;;1.23;1.10;;;16.00;1.00;;;;;;5280819;28;20023;-41
2024/01/24 13:22:42;;;;;;;2.03;1.92;;;16.00;1.00;;;;;;5270300;28;20255;-40
2024/01/24 13:25:13;;;;;;;1.55;1.42;;;15.90;1.00;;;;;;5282598;28;20027;-41
2024/01/24 13:27:46;;;;;;;1.60;1.45;;;15.80;1.00;;;;;;5288534;28;20036;-41
2024/01/24 13:30:17;;;;;;;1.10;1.00;;;15.70;1.00;;;;;;5278015;28;20034;-41
2024/01/24 13:32:49;;;;;;;1.30;1.13;;;15.60;1.00;;;;;;5265581;28;20035;-41